Time;durP1;ratioP1;P1;durP2;ratioP2;P2;SDS_P1;SDS_P2;PMS_P1;PMS_P2;Temp;Humidity;BMP_temperature;BMP_pressure;BME280_temperature;BME280_humidity;BME280_pressure;Samples;Min_cycle;Max_cycle;Signal;HPM_P1;HPM_P2
2023/09/30 00:01:23;;;;;;;47.10;28.45;;;19.20;99.90;;;;;;5118154;27;20031;-86
2023/09/30 00:03:49;;;;;;;51.47;30.00;;;19.10;99.90;;;;;;5117886;27;20023;-86
2023/09/30 00:06:15;;;;;;;52.50;30.45;;;19.10;99.90;;;;;;5117882;27;20479;-86
2023/09/30 00:08:43;;;;;;;47.78;28.30;;;19.10;99.90;;;;;;5117848;27;20027;-85
2023/09/30 00:11:09;;;;;;;46.35;29.42;;;19.10;99.90;;;;;;5117952;27;20031;-86
2023/09/30 00:13:36;;;;;;;49.85;29.20;;;19.00;99.90;;;;;;5117719;27;20031;-86
2023/09/30 00:16:03;;;;;;;45.13;30.02;;;19.00;99.90;;;;;;5116820;27;20023;-86
2023/09/30 00:18:29;;;;;;;49.47;30.50;;;19.00;99.90;;;;;;5099667;27;20567;-86
2023/09/30 00:20:57;;;;;;;54.05;30.80;;;19.10;99.90;;;;;;5080537;28;20028;-86
2023/09/30 00:23:23;;;;;;;55.05;31.48;;;19.00;99.90;;;;;;5114265;28;20024;-86
2023/09/30 00:25:51;;;;;;;47.25;29.17;;;19.10;99.90;;;;;;5097232;28;20027;-86
2023/09/30 00:28:18;;;;;;;51.42;30.35;;;19.10;99.90;;;;;;5096973;28;20024;-86
2023/09/30 00:30:53;;;;;;;47.22;29.17;;;19.10;99.90;;;;;;5113378;28;20047;-85
2023/09/30 00:33:21;;;;;;;50.47;30.83;;;19.10;99.90;;;;;;5097146;28;20035;-86
2023/09/30 00:35:47;;;;;;;52.38;29.50;;;19.10;99.90;;;;;;5080294;28;20111;-87
2023/09/30 00:38:14;;;;;;;50.13;30.27;;;19.00;99.90;;;;;;5130945;27;20024;-86
2023/09/30 00:40:48;;;;;;;51.00;31.27;;;19.00;99.90;;;;;;5078885;28;20670;-87
2023/09/30 00:43:29;;;;;;;56.33;33.25;;;19.00;99.90;;;;;;5080368;28;20027;-87
2023/09/30 00:46:34;;;;;;;58.85;32.17;;;18.90;99.90;;;;;;5096389;28;20062;-87
2023/09/30 00:49:02;;;;;;;58.70;32.33;;;19.00;99.90;;;;;;5096810;28;20111;-86
2023/09/30 00:51:29;;;;;;;55.47;32.78;;;18.90;99.90;;;;;;5079622;28;20080;-87
2023/09/30 00:53:59;;;;;;;59.88;32.25;;;18.90;99.90;;;;;;5096550;28;20058;-86
2023/09/30 00:56:28;;;;;;;57.53;31.95;;;18.90;99.90;;;;;;5096583;28;20362;-86
2023/09/30 00:58:55;;;;;;;57.70;32.80;;;18.80;99.90;;;;;;5083348;27;20019;-86
2023/09/30 01:01:22;;;;;;;58.45;33.70;;;18.90;99.90;;;;;;5099875;27;20076;-86
2023/09/30 01:03:49;;;;;;;59.55;33.22;;;18.80;99.90;;;;;;5099835;27;20089;-86
2023/09/30 01:06:15;;;;;;;57.05;33.05;;;18.80;99.90;;;;;;5116946;27;20023;-86
2023/09/30 01:08:42;;;;;;;51.15;29.90;;;18.80;99.90;;;;;;5098003;27;20023;-86
2023/09/30 01:11:09;;;;;;;58.38;32.20;;;18.80;99.90;;;;;;5079523;28;20162;-86
2023/09/30 01:13:38;;;;;;;55.00;30.27;;;18.80;99.90;;;;;;5079825;28;20482;-86
2023/09/30 01:16:12;;;;;;;57.38;30.45;;;18.80;99.90;;;;;;5096382;28;20035;-86
2023/09/30 01:18:42;;;;;;;57.15;31.50;;;18.80;99.90;;;;;;5080539;28;20023;-86
2023/09/30 01:21:10;;;;;;;55.72;29.85;;;18.90;99.90;;;;;;5116719;27;20023;-86
2023/09/30 01:23:37;;;;;;;54.83;30.05;;;18.90;99.90;;;;;;5099891;27;20055;-86
2023/09/30 01:26:06;;;;;;;50.50;29.60;;;18.90;99.90;;;;;;5116776;27;20119;-86
2023/09/30 01:28:33;;;;;;;57.63;31.80;;;18.90;99.90;;;;;;5099292;27;20494;-86
2023/09/30 01:31:00;;;;;;;57.72;31.63;;;18.80;99.90;;;;;;5112694;28;20042;-86
2023/09/30 01:33:28;;;;;;;51.83;31.15;;;18.90;99.90;;;;;;5096023;28;20024;-86
2023/09/30 01:35:55;;;;;;;54.55;30.80;;;18.80;99.90;;;;;;5079335;28;20139;-86
2023/09/30 01:38:21;;;;;;;48.85;29.73;;;18.80;99.90;;;;;;5079121;28;20055;-85
2023/09/30 01:40:48;;;;;;;56.35;32.25;;;18.80;99.90;;;;;;5112876;28;20557;-85
2023/09/30 01:43:15;;;;;;;53.08;31.20;;;18.80;99.90;;;;;;5079148;28;20028;-86
2023/09/30 01:45:42;;;;;;;57.75;31.92;;;18.80;99.90;;;;;;5078975;28;20039;-87
2023/09/30 01:48:12;;;;;;;57.22;32.50;;;18.80;99.90;;;;;;5096455;28;20055;-86
2023/09/30 01:50:39;;;;;;;57.00;32.60;;;18.80;99.90;;;;;;5096067;28;20042;-86
2023/09/30 01:53:06;;;;;;;62.58;31.55;;;18.80;99.90;;;;;;5079052;28;20040;-85
2023/09/30 01:55:33;;;;;;;56.97;31.15;;;18.80;99.90;;;;;;5079112;28;20028;-86
2023/09/30 01:58:00;;;;;;;50.00;31.67;;;18.80;99.90;;;;;;5078838;28;20024;-85
2023/09/30 02:00:28;;;;;;;52.78;31.48;;;18.70;99.90;;;;;;5112560;28;20482;-85
2023/09/30 02:02:55;;;;;;;59.60;32.80;;;18.70;99.90;;;;;;5078928;28;20019;-85
2023/09/30 02:05:25;;;;;;;55.10;31.55;;;18.70;99.90;;;;;;5079022;28;20028;-85
2023/09/30 02:07:51;;;;;;;56.28;31.55;;;18.70;99.90;;;;;;5112700;28;20035;-85
2023/09/30 02:10:21;;;;;;;59.10;31.52;;;18.60;99.90;;;;;;5116277;28;20033;-86
2023/09/30 02:12:47;;;;;;;55.70;31.35;;;18.70;99.90;;;;;;5134196;28;20035;-85
2023/09/30 02:15:14;;;;;;;54.08;31.88;;;18.70;99.90;;;;;;5099105;28;20090;-85
2023/09/30 02:17:45;;;;;;;61.55;32.45;;;18.60;99.90;;;;;;5115931;28;20042;-85
2023/09/30 02:20:12;;;;;;;47.70;29.52;;;18.60;99.90;;;;;;5115865;28;20023;-86
2023/09/30 02:22:39;;;;;;;54.22;30.73;;;18.60;99.90;;;;;;5116166;28;20027;-85
2023/09/30 02:25:07;;;;;;;57.67;31.15;;;18.60;99.90;;;;;;5099002;28;20024;-85
2023/09/30 02:27:34;;;;;;;56.72;31.20;;;18.60;99.90;;;;;;5099236;28;20060;-85
2023/09/30 02:30:01;;;;;;;49.90;30.50;;;18.60;99.90;;;;;;5115670;28;20023;-85
2023/09/30 02:32:27;;;;;;;53.35;29.95;;;18.60;99.90;;;;;;5112150;28;20047;-86
2023/09/30 02:34:53;;;;;;;52.13;30.80;;;18.70;99.90;;;;;;5112507;28;20102;-86
2023/09/30 02:37:20;;;;;;;51.05;29.65;;;18.70;99.90;;;;;;5095462;28;20028;-85
2023/09/30 02:39:46;;;;;;;47.83;28.98;;;18.70;99.90;;;;;;5097682;28;20492;-85
2023/09/30 02:42:12;;;;;;;55.38;30.73;;;18.80;99.90;;;;;;5099197;28;20062;-85
2023/09/30 02:44:38;;;;;;;53.38;30.33;;;18.80;99.90;;;;;;5116142;28;20020;-86
2023/09/30 02:47:05;;;;;;;51.40;30.70;;;18.80;99.90;;;;;;5099189;28;20024;-86
2023/09/30 02:49:33;;;;;;;52.80;29.70;;;18.80;99.90;;;;;;5088442;28;20500;-86
2023/09/30 02:51:59;;;;;;;53.97;28.05;;;18.90;99.90;;;;;;5091977;28;20127;-85
2023/09/30 02:54:26;;;;;;;49.92;28.92;;;18.90;99.90;;;;;;5075133;28;20036;-86
2023/09/30 02:56:54;;;;;;;51.75;28.58;;;19.00;99.90;;;;;;5092083;28;20031;-85
2023/09/30 02:59:22;;;;;;;47.15;29.00;;;19.00;99.90;;;;;;5092127;28;20035;-85
2023/09/30 03:01:50;;;;;;;56.42;30.45;;;19.00;99.90;;;;;;5091613;28;20021;-85
2023/09/30 03:04:19;;;;;;;52.85;30.75;;;19.10;99.90;;;;;;5092371;28;20385;-86
2023/09/30 03:06:48;;;;;;;49.90;29.80;;;19.20;99.90;;;;;;5092215;28;20115;-87
2023/09/30 03:09:15;;;;;;;52.72;29.35;;;19.30;99.90;;;;;;5099704;28;20023;-87
2023/09/30 03:11:42;;;;;;;49.30;27.88;;;19.30;99.90;;;;;;5115890;28;20028;-87
2023/09/30 03:14:11;;;;;;;55.25;29.70;;;19.30;99.90;;;;;;5115676;28;20066;-85
2023/09/30 03:16:40;;;;;;;51.88;29.45;;;19.30;99.90;;;;;;5098226;28;20043;-85
2023/09/30 03:19:07;;;;;;;45.95;28.10;;;19.30;99.90;;;;;;5098371;28;20024;-85
2023/09/30 03:21:37;;;;;;;47.83;29.15;;;19.30;99.90;;;;;;5098575;28;20020;-85
2023/09/30 03:24:04;;;;;;;45.13;28.15;;;19.30;99.90;;;;;;5115183;28;20037;-85
2023/09/30 03:26:31;;;;;;;46.95;27.48;;;19.30;99.90;;;;;;5098223;28;20020;-86
2023/09/30 03:28:58;;;;;;;52.45;28.48;;;19.30;99.90;;;;;;5098143;28;20032;-87
2023/09/30 03:31:25;;;;;;;47.20;27.95;;;19.30;99.90;;;;;;5097917;28;20050;-86
2023/09/30 03:33:55;;;;;;;42.30;28.23;;;19.30;99.90;;;;;;5115198;28;20032;-84
2023/09/30 03:36:24;;;;;;;46.17;28.08;;;19.30;99.90;;;;;;5098106;28;20103;-85
2023/09/30 03:38:54;;;;;;;43.40;27.40;;;19.30;99.90;;;;;;5096730;28;20506;-80
2023/09/30 03:41:20;;;;;;;44.47;27.42;;;19.30;99.90;;;;;;5094979;28;20039;-81
2023/09/30 03:43:49;;;;;;;50.35;27.63;;;19.30;99.90;;;;;;5094984;28;20080;-79
2023/09/30 03:46:15;;;;;;;51.60;28.75;;;19.30;99.90;;;;;;5094880;28;20102;-79
2023/09/30 03:48:44;;;;;;;51.95;28.33;;;19.30;99.90;;;;;;5094717;28;20027;-79
2023/09/30 03:51:14;;;;;;;46.88;26.70;;;19.30;99.90;;;;;;5114677;28;20043;-80
2023/09/30 03:53:49;;;;;;;45.80;27.25;;;19.30;99.90;;;;;;5113865;28;20039;-81
2023/09/30 03:56:18;;;;;;;46.47;27.85;;;19.30;99.90;;;;;;5113688;28;20028;-82
2023/09/30 03:58:48;;;;;;;46.28;27.23;;;19.20;99.90;;;;;;5113549;28;20500;-81
2023/09/30 04:01:16;;;;;;;46.05;26.92;;;19.20;99.90;;;;;;5073167;28;20025;-81
2023/09/30 04:03:43;;;;;;;46.47;26.98;;;19.30;99.90;;;;;;5089732;28;20428;-81
2023/09/30 04:06:09;;;;;;;44.40;25.65;;;19.30;99.90;;;;;;5093134;28;20024;-82
2023/09/30 04:08:36;;;;;;;47.55;26.58;;;19.20;99.90;;;;;;5076371;28;20392;-82
2023/09/30 04:11:03;;;;;;;46.85;27.98;;;19.20;99.90;;;;;;5111626;28;20031;-82
2023/09/30 04:13:29;;;;;;;47.70;25.70;;;19.20;99.90;;;;;;5113413;28;20024;-82
2023/09/30 04:15:58;;;;;;;43.70;26.77;;;19.20;99.90;;;;;;5114391;28;20036;-81
2023/09/30 04:18:26;;;;;;;45.30;27.58;;;19.10;99.90;;;;;;5113405;28;20020;-82
2023/09/30 04:20:53;;;;;;;40.83;25.23;;;19.10;99.90;;;;;;5076694;28;20485;-81
2023/09/30 04:23:22;;;;;;;39.47;24.80;;;19.10;99.90;;;;;;5073982;28;20045;-82
2023/09/30 04:25:49;;;;;;;45.80;25.92;;;19.10;99.90;;;;;;5072792;28;20481;-82
2023/09/30 04:28:20;;;;;;;47.90;26.98;;;19.00;99.90;;;;;;5089308;28;20116;-82
2023/09/30 04:30:50;;;;;;;41.38;25.48;;;19.00;99.90;;;;;;5111127;27;20028;-82
2023/09/30 04:33:20;;;;;;;45.10;25.95;;;19.00;99.90;;;;;;5134737;27;20027;-82
2023/09/30 04:35:48;;;;;;;50.17;27.95;;;19.10;99.90;;;;;;5099375;27;20023;-82
2023/09/30 04:38:15;;;;;;;45.33;25.02;;;19.10;99.90;;;;;;5134712;27;20030;-82
2023/09/30 04:40:43;;;;;;;40.65;24.98;;;19.10;99.90;;;;;;5100984;28;20064;-82
2023/09/30 04:43:10;;;;;;;45.83;26.50;;;19.10;99.90;;;;;;5095846;28;20114;-82
2023/09/30 04:45:36;;;;;;;48.88;26.27;;;19.20;99.90;;;;;;5114102;28;20479;-82
2023/09/30 04:48:04;;;;;;;42.90;25.42;;;19.20;99.90;;;;;;5095586;28;20027;-82
2023/09/30 04:50:30;;;;;;;45.17;25.70;;;19.30;99.90;;;;;;5119016;27;20012;-82
2023/09/30 04:52:57;;;;;;;43.97;26.48;;;19.30;99.90;;;;;;5095723;28;20181;-83
2023/09/30 04:55:24;;;;;;;40.45;25.42;;;19.30;99.90;;;;;;5078767;28;20016;-83
2023/09/30 04:57:50;;;;;;;43.80;25.45;;;19.40;99.90;;;;;;5078615;28;20122;-83
2023/09/30 05:00:18;;;;;;;45.95;26.35;;;19.40;99.90;;;;;;5125309;27;20101;-83
2023/09/30 05:02:45;;;;;;;38.28;25.35;;;19.40;99.90;;;;;;5115488;27;20168;-82
2023/09/30 05:05:12;;;;;;;43.60;25.58;;;19.50;99.90;;;;;;5099100;27;20030;-83
2023/09/30 05:07:38;;;;;;;39.88;25.63;;;19.50;99.90;;;;;;5134203;27;20019;-82
2023/09/30 05:10:07;;;;;;;35.70;24.95;;;19.50;99.90;;;;;;5106247;28;20034;-83
2023/09/30 05:12:33;;;;;;;44.15;25.90;;;19.60;99.90;;;;;;5095296;28;20048;-82
2023/09/30 05:15:00;;;;;;;59.10;25.73;;;19.60;99.90;;;;;;5112396;28;20061;-83
2023/09/30 05:17:26;;;;;;;43.10;24.38;;;19.60;99.90;;;;;;5078562;28;20548;-82
2023/09/30 05:19:53;;;;;;;45.15;25.38;;;19.70;99.90;;;;;;5115570;27;20031;-83
2023/09/30 05:22:23;;;;;;;40.40;22.20;;;19.80;99.90;;;;;;5115609;27;20034;-83
2023/09/30 05:24:53;;;;;;;39.67;24.13;;;19.80;99.90;;;;;;5115524;28;20027;-82
2023/09/30 05:27:20;;;;;;;37.30;23.10;;;19.90;99.90;;;;;;5115520;27;20050;-83
2023/09/30 05:29:46;;;;;;;41.22;25.05;;;19.90;99.90;;;;;;5112012;28;20055;-83
2023/09/30 05:32:14;;;;;;;35.92;23.63;;;20.10;99.90;;;;;;5091621;28;20072;-83
2023/09/30 05:34:40;;;;;;;36.40;22.52;;;20.20;99.90;;;;;;5093333;28;20020;-84
2023/09/30 05:37:06;;;;;;;36.58;21.20;;;20.30;99.90;;;;;;5091988;28;20020;-84
2023/09/30 05:39:33;;;;;;;33.63;21.48;;;20.50;99.90;;;;;;5079418;28;20058;-84
2023/09/30 05:41:59;;;;;;;35.00;21.95;;;20.70;99.90;;;;;;5113514;28;20027;-84
2023/09/30 05:44:28;;;;;;;36.10;22.02;;;20.70;99.90;;;;;;5112285;28;20020;-83
2023/09/30 05:46:54;;;;;;;35.50;21.38;;;21.00;99.90;;;;;;5102800;28;20539;-84
2023/09/30 05:49:21;;;;;;;37.70;20.92;;;21.20;99.90;;;;;;5094158;28;20071;-84
2023/09/30 05:51:47;;;;;;;29.48;20.95;;;21.50;99.90;;;;;;5113000;28;20448;-83
2023/09/30 05:54:13;;;;;;;31.92;21.55;;;21.70;99.90;;;;;;5112168;28;20024;-82
2023/09/30 05:56:42;;;;;;;30.35;20.98;;;22.10;99.90;;;;;;5094915;28;20055;-84
2023/09/30 05:59:09;;;;;;;32.10;23.30;;;22.60;99.90;;;;;;5112316;28;20023;-84
2023/09/30 06:01:36;;;;;;;27.80;22.63;;;22.70;99.90;;;;;;5092101;28;20372;-84
2023/09/30 06:04:03;;;;;;;30.58;23.48;;;22.90;99.90;;;;;;5091864;28;20039;-84
2023/09/30 06:06:29;;;;;;;29.02;23.33;;;23.20;99.90;;;;;;5091858;28;20024;-84
2023/09/30 06:08:59;;;;;;;35.00;23.52;;;23.60;99.90;;;;;;5089767;28;20016;-84
2023/09/30 06:11:29;;;;;;;33.67;25.23;;;23.60;99.90;;;;;;5072218;28;20032;-84
2023/09/30 06:14:00;;;;;;;31.88;25.88;;;23.90;99.90;;;;;;5072853;28;20064;-85
2023/09/30 06:16:31;;;;;;;30.27;24.70;;;23.70;99.90;;;;;;5092284;28;20078;-85
2023/09/30 06:18:58;;;;;;;30.05;25.13;;;23.80;99.90;;;;;;5092395;28;20120;-84
2023/09/30 06:21:29;;;;;;;29.60;26.05;;;24.00;99.90;;;;;;5115461;28;20019;-84
2023/09/30 06:23:56;;;;;;;27.98;24.98;;;24.10;99.90;;;;;;5117471;28;20545;-84
2023/09/30 06:26:24;;;;;;;30.83;24.92;;;24.10;99.90;;;;;;5115832;28;20030;-83
2023/09/30 06:28:53;;;;;;;34.53;26.50;;;23.90;99.90;;;;;;5115647;28;20045;-83
2023/09/30 06:31:20;;;;;;;27.48;24.60;;;24.00;99.90;;;;;;5076640;28;20049;-83
2023/09/30 06:33:47;;;;;;;29.98;25.30;;;24.00;99.90;;;;;;5075086;28;20512;-82
2023/09/30 06:36:14;;;;;;;32.13;25.02;;;24.00;99.90;;;;;;5091637;28;20028;-84
2023/09/30 06:38:44;;;;;;;34.42;25.55;;;24.10;99.90;;;;;;5091905;28;20458;-84
2023/09/30 06:41:17;;;;;;;29.42;24.50;;;24.20;99.90;;;;;;5112214;28;20031;-83
2023/09/30 06:43:44;;;;;;;26.67;23.80;;;24.30;99.90;;;;;;5098577;28;20028;-84
2023/09/30 06:46:44;;;;;;;29.60;23.92;;;24.10;99.90;;;;;;5098461;28;20027;-92
2023/09/30 06:49:11;;;;;;;27.05;24.33;;;24.20;99.90;;;;;;5055430;28;20037;-75
2023/09/30 06:51:39;;;;;;;26.77;23.85;;;24.50;99.90;;;;;;5050281;28;20041;-75
2023/09/30 06:54:08;;;;;;;28.45;24.77;;;24.70;99.90;;;;;;5049632;28;20041;-75
2023/09/30 06:56:36;;;;;;;28.13;25.30;;;24.70;99.90;;;;;;5033542;28;20545;-75
2023/09/30 06:59:03;;;;;;;27.95;24.23;;;24.50;99.90;;;;;;5033280;28;20038;-75
2023/09/30 07:01:30;;;;;;;26.23;23.48;;;24.20;99.90;;;;;;5072220;28;20534;-75
2023/09/30 07:03:59;;;;;;;26.73;23.88;;;24.30;99.90;;;;;;5074215;28;20033;-75
2023/09/30 07:06:26;;;;;;;25.95;23.30;;;24.60;99.90;;;;;;5073083;28;20028;-75
2023/09/30 07:08:54;;;;;;;26.45;23.65;;;24.70;99.90;;;;;;5056339;28;20036;-75
2023/09/30 07:11:33;;;;;;;26.67;24.13;;;24.80;99.90;;;;;;5055077;28;20029;-75
2023/09/30 07:14:01;;;;;;;28.23;24.98;;;25.00;99.90;;;;;;5052946;28;20041;-75
2023/09/30 07:16:29;;;;;;;27.27;24.27;;;25.10;99.90;;;;;;5053036;28;20032;-75
2023/09/30 07:18:58;;;;;;;27.55;24.70;;;25.00;99.90;;;;;;5052723;28;20075;-75
2023/09/30 07:21:26;;;;;;;28.75;24.90;;;25.10;99.90;;;;;;5071352;28;20093;-75
2023/09/30 07:23:52;;;;;;;26.42;23.83;;;25.20;99.90;;;;;;5056075;28;20035;-75
2023/09/30 07:26:25;;;;;;;26.05;23.40;;;25.10;99.90;;;;;;5101118;28;20036;-77
2023/09/30 07:28:54;;;;;;;25.73;22.48;;;24.90;99.90;;;;;;5114005;28;20031;-77
2023/09/30 07:31:23;;;;;;;26.27;22.20;;;24.90;99.90;;;;;;5096095;28;20392;-78
2023/09/30 07:33:50;;;;;;;25.63;23.10;;;24.90;99.90;;;;;;5093812;28;20028;-77
2023/09/30 07:36:17;;;;;;;25.02;22.40;;;25.10;99.90;;;;;;5094801;28;20031;-77
2023/09/30 07:38:47;;;;;;;24.48;21.80;;;24.60;99.90;;;;;;5076941;28;20032;-78
2023/09/30 07:41:14;;;;;;;25.27;21.55;;;24.40;99.90;;;;;;5110458;28;20028;-77
2023/09/30 07:43:40;;;;;;;24.73;22.20;;;24.80;99.90;;;;;;5114081;28;20128;-77
2023/09/30 07:46:08;;;;;;;24.15;21.85;;;25.00;99.90;;;;;;5114023;28;20026;-78
2023/09/30 07:48:39;;;;;;;23.92;21.65;;;25.20;99.90;;;;;;5115218;28;20032;-79
2023/09/30 07:51:12;;;;;;;24.23;21.75;;;25.30;99.90;;;;;;5099389;28;20107;-79
2023/09/30 07:53:40;;;;;;;25.75;23.27;;;24.90;99.90;;;;;;5094792;28;20028;-79
2023/09/30 07:56:09;;;;;;;25.35;22.92;;;25.00;99.90;;;;;;5094759;28;20023;-79
2023/09/30 07:58:37;;;;;;;24.65;22.25;;;25.50;99.90;;;;;;5094602;28;20035;-79
2023/09/30 08:01:04;;;;;;;24.30;22.50;;;25.60;99.90;;;;;;5109765;28;20020;-79
2023/09/30 08:03:31;;;;;;;25.50;23.15;;;26.10;99.90;;;;;;5114970;28;20024;-79
2023/09/30 08:05:59;;;;;;;26.33;23.73;;;26.10;99.90;;;;;;5114286;28;20016;-79
2023/09/30 08:08:29;;;;;;;25.30;23.10;;;26.00;99.90;;;;;;5114694;28;20027;-79
2023/09/30 08:10:59;;;;;;;24.38;22.00;;;26.50;99.90;;;;;;5099638;28;20024;-80
2023/09/30 08:13:29;;;;;;;25.75;23.55;;;26.50;99.90;;;;;;5094423;28;20060;-79
2023/09/30 08:15:57;;;;;;;25.60;23.13;;;27.10;99.90;;;;;;5097030;28;20028;-77
2023/09/30 08:18:24;;;;;;;24.75;22.60;;;27.10;99.90;;;;;;5094332;28;20027;-80
2023/09/30 08:20:52;;;;;;;25.63;23.23;;;26.10;99.90;;;;;;5107121;28;20108;-81
2023/09/30 08:23:18;;;;;;;24.98;22.42;;;26.00;99.90;;;;;;5113281;28;20019;-79
2023/09/30 08:25:45;;;;;;;24.85;22.65;;;26.20;99.90;;;;;;5114501;28;20114;-77
2023/09/30 08:28:13;;;;;;;25.58;23.02;;;26.30;99.90;;;;;;5114365;28;20117;-79
2023/09/30 08:30:40;;;;;;;24.42;22.33;;;26.10;99.90;;;;;;5082905;28;20488;-79
2023/09/30 08:33:07;;;;;;;24.83;22.48;;;26.00;99.90;;;;;;5093916;28;20044;-80
2023/09/30 08:35:39;;;;;;;24.67;22.65;;;25.90;99.90;;;;;;5075894;28;20032;-80
2023/09/30 08:38:08;;;;;;;27.83;23.17;;;25.90;99.90;;;;;;5091960;28;20031;-79
2023/09/30 08:40:38;;;;;;;25.80;23.15;;;25.80;99.90;;;;;;5106511;27;20528;-80
2023/09/30 08:43:05;;;;;;;24.80;22.83;;;26.00;99.90;;;;;;5134494;27;20070;-80
2023/09/30 08:45:39;;;;;;;26.40;24.10;;;26.00;99.90;;;;;;5134489;27;20076;-80
2023/09/30 08:48:06;;;;;;;25.70;23.75;;;26.10;99.90;;;;;;5115788;27;20424;-80
2023/09/30 08:50:35;;;;;;;26.35;24.05;;;26.10;99.90;;;;;;5124397;27;20098;-80
2023/09/30 08:53:03;;;;;;;26.75;24.60;;;26.40;99.90;;;;;;5113611;28;20047;-78
2023/09/30 08:55:34;;;;;;;26.63;24.55;;;26.50;99.90;;;;;;5112879;28;20043;-79
2023/09/30 08:58:02;;;;;;;26.70;24.70;;;26.30;99.90;;;;;;5093485;28;20044;-80
2023/09/30 09:00:29;;;;;;;27.88;25.58;;;26.40;99.90;;;;;;5111964;27;20107;-80
2023/09/30 09:02:55;;;;;;;27.95;25.95;;;26.10;99.90;;;;;;5134250;27;20039;-79
2023/09/30 09:05:22;;;;;;;29.60;27.38;;;26.20;99.90;;;;;;5134301;27;20023;-80
2023/09/30 09:07:50;;;;;;;29.67;27.45;;;26.50;99.90;;;;;;5134169;27;20031;-80
2023/09/30 09:10:18;;;;;;;28.80;26.70;;;26.60;99.90;;;;;;5126668;27;20011;-79
2023/09/30 09:12:57;;;;;;;28.48;26.23;;;26.40;99.90;;;;;;5078587;28;20061;-80
2023/09/30 09:15:28;;;;;;;30.23;27.33;;;26.20;99.90;;;;;;5113636;28;20026;-80
2023/09/30 09:17:56;;;;;;;29.42;27.05;;;26.20;99.90;;;;;;5113605;28;20054;-79
2023/09/30 09:20:28;;;;;;;28.80;26.05;;;26.10;99.90;;;;;;5121584;27;20046;-77
2023/09/30 09:23:00;;;;;;;27.98;25.42;;;26.20;99.90;;;;;;5134048;27;20037;-76
2023/09/30 09:25:28;;;;;;;27.17;25.27;;;26.20;99.90;;;;;;5134040;27;20027;-79
2023/09/30 09:27:54;;;;;;;27.77;25.83;;;26.20;99.90;;;;;;5133979;27;20026;-78
2023/09/30 09:30:23;;;;;;;28.13;25.65;;;26.10;99.90;;;;;;5125986;27;20028;-77
2023/09/30 09:33:01;;;;;;;28.05;25.83;;;26.00;99.90;;;;;;5112786;28;20052;-78
2023/09/30 09:35:30;;;;;;;27.55;25.58;;;26.10;99.90;;;;;;5112624;28;20117;-79
2023/09/30 09:38:01;;;;;;;28.42;26.02;;;26.30;99.90;;;;;;5109503;28;20024;-78
2023/09/30 09:40:30;;;;;;;27.45;25.23;;;26.40;99.90;;;;;;5121449;28;20494;-78
2023/09/30 09:43:07;;;;;;;30.27;27.10;;;26.20;99.90;;;;;;5101535;28;20388;-79
2023/09/30 09:45:38;;;;;;;28.48;26.10;;;26.50;99.90;;;;;;5113202;28;20058;-79
2023/09/30 09:48:09;;;;;;;29.15;26.48;;;26.60;99.90;;;;;;5096279;28;20609;-79
2023/09/30 09:50:38;;;;;;;28.23;25.85;;;26.50;99.90;;;;;;5126678;27;20053;-78
2023/09/30 09:53:06;;;;;;;29.25;26.88;;;26.50;99.90;;;;;;5137840;27;20031;-78
2023/09/30 09:55:33;;;;;;;28.20;26.13;;;26.50;99.90;;;;;;5120602;27;20024;-79
2023/09/30 09:58:02;;;;;;;28.52;26.35;;;26.50;99.90;;;;;;5117133;28;20036;-79
2023/09/30 10:00:31;;;;;;;28.08;25.88;;;26.50;99.90;;;;;;5107274;27;20022;-79
2023/09/30 10:03:08;;;;;;;28.10;25.98;;;26.40;99.90;;;;;;5134537;27;20022;-79
2023/09/30 10:05:39;;;;;;;28.42;26.08;;;26.50;99.90;;;;;;5109186;28;20484;-79
2023/09/30 10:08:11;;;;;;;29.55;26.73;;;26.80;99.90;;;;;;5096742;28;20030;-79
2023/09/30 10:10:39;;;;;;;29.27;26.65;;;26.60;99.90;;;;;;5095685;27;20031;-80
2023/09/30 10:13:07;;;;;;;29.23;26.90;;;26.60;99.90;;;;;;5116309;28;20028;-80
2023/09/30 10:15:39;;;;;;;28.70;26.50;;;26.60;99.90;;;;;;5113145;28;20015;-79
2023/09/30 10:18:11;;;;;;;28.50;26.30;;;26.60;99.90;;;;;;5116956;28;20028;-79
2023/09/30 10:20:47;;;;;;;27.83;25.83;;;26.50;99.90;;;;;;5120874;27;20558;-79
2023/09/30 10:23:20;;;;;;;27.67;25.30;;;26.60;99.90;;;;;;5133376;27;20130;-79
2023/09/30 10:25:51;;;;;;;28.08;25.58;;;26.60;99.90;;;;;;5137078;27;20028;-78
2023/09/30 10:28:39;;;;;;;27.42;25.17;;;26.50;99.90;;;;;;5137255;27;20076;-79
2023/09/30 10:31:24;;;;;;;28.25;25.92;;;26.30;99.90;;;;;;5123893;27;20192;-79
2023/09/30 10:34:01;;;;;;;28.88;26.30;;;26.30;99.90;;;;;;5077932;28;20126;-79
2023/09/30 10:36:39;;;;;;;29.10;26.55;;;26.50;99.90;;;;;;5096141;28;20028;-79
2023/09/30 10:39:13;;;;;;;29.02;26.50;;;26.70;99.90;;;;;;5096035;28;20520;-79
2023/09/30 10:41:50;;;;;;;28.95;26.50;;;26.60;99.90;;;;;;5117377;27;20030;-79
2023/09/30 10:44:26;;;;;;;27.85;25.58;;;26.60;99.90;;;;;;5098026;28;20028;-79
2023/09/30 10:46:58;;;;;;;29.40;25.77;;;26.50;99.90;;;;;;5115636;28;20476;-79
2023/09/30 10:49:26;;;;;;;27.83;25.73;;;26.50;99.90;;;;;;5115499;28;20032;-78
2023/09/30 10:51:54;;;;;;;28.92;26.00;;;26.50;99.90;;;;;;5105630;28;20069;-78
2023/09/30 10:54:27;;;;;;;28.10;25.77;;;26.40;99.90;;;;;;5115613;28;20035;-78
2023/09/30 10:56:55;;;;;;;28.77;26.10;;;26.20;99.90;;;;;;5095786;28;20024;-77
2023/09/30 10:59:30;;;;;;;29.17;26.30;;;26.30;99.90;;;;;;5101828;28;20078;-78
2023/09/30 11:01:57;;;;;;;29.90;27.08;;;26.20;99.90;;;;;;5117258;27;20023;-78
2023/09/30 11:04:23;;;;;;;29.85;26.83;;;26.50;99.90;;;;;;5118026;27;20031;-78
2023/09/30 11:06:51;;;;;;;29.13;26.40;;;26.50;99.90;;;;;;5118081;27;20028;-80
2023/09/30 11:09:22;;;;;;;29.25;26.80;;;26.40;99.90;;;;;;5136436;27;20387;-80
2023/09/30 11:11:52;;;;;;;29.25;26.67;;;26.30;99.90;;;;;;5089858;28;20035;-80
2023/09/30 11:14:31;;;;;;;29.92;27.42;;;26.30;99.90;;;;;;5095270;28;20028;-80
2023/09/30 11:17:01;;;;;;;30.25;27.42;;;26.50;99.90;;;;;;5077478;28;20025;-80
2023/09/30 11:19:47;;;;;;;29.08;26.52;;;26.50;99.90;;;;;;5095162;28;20039;-80
2023/09/30 11:22:15;;;;;;;28.55;26.00;;;26.50;99.90;;;;;;5077213;28;20028;-79
2023/09/30 11:24:41;;;;;;;29.30;26.50;;;26.30;99.90;;;;;;5076904;28;20470;-78
2023/09/30 11:27:09;;;;;;;29.48;26.77;;;26.40;99.90;;;;;;5095226;28;20461;-81
2023/09/30 11:29:36;;;;;;;28.58;26.17;;;26.50;99.90;;;;;;5095067;28;20081;-79
2023/09/30 11:32:03;;;;;;;28.33;25.60;;;26.50;99.90;;;;;;5134871;27;20079;-79
2023/09/30 11:34:37;;;;;;;29.50;27.08;;;26.70;99.90;;;;;;5117748;27;20027;-80
2023/09/30 11:37:07;;;;;;;29.98;27.38;;;26.60;99.90;;;;;;5117796;27;20051;-80
2023/09/30 11:39:35;;;;;;;30.00;27.60;;;26.70;99.90;;;;;;5117615;27;20039;-79
2023/09/30 11:42:19;;;;;;;30.08;27.15;;;26.70;99.90;;;;;;5115958;27;20028;-79
2023/09/30 11:44:49;;;;;;;28.83;26.33;;;26.60;99.90;;;;;;5115351;28;20024;-79
2023/09/30 11:47:27;;;;;;;29.60;27.38;;;26.60;99.90;;;;;;5096478;28;20112;-80
2023/09/30 11:49:56;;;;;;;29.90;27.25;;;26.60;99.90;;;;;;5104280;27;20117;-79
2023/09/30 11:52:28;;;;;;;29.92;27.20;;;26.40;99.90;;;;;;5122931;27;20504;-78
2023/09/30 11:55:00;;;;;;;28.25;26.17;;;26.30;99.90;;;;;;5114630;28;20028;-79
2023/09/30 11:57:28;;;;;;;29.00;26.55;;;26.30;99.90;;;;;;5113113;28;20028;-78
2023/09/30 11:59:56;;;;;;;29.85;26.88;;;26.50;99.90;;;;;;5115105;27;20103;-79
2023/09/30 12:02:40;;;;;;;28.90;26.60;;;26.60;99.90;;;;;;5125155;27;20095;-79
2023/09/30 12:05:21;;;;;;;28.85;26.40;;;26.60;99.90;;;;;;5108658;28;20019;-79
2023/09/30 12:07:51;;;;;;;29.00;26.80;;;26.40;99.90;;;;;;5096248;28;20055;-79
2023/09/30 12:10:17;;;;;;;29.98;27.35;;;26.50;99.90;;;;;;5111159;27;20027;-80
2023/09/30 12:12:49;;;;;;;28.92;26.70;;;26.60;99.90;;;;;;5111620;27;20122;-79
2023/09/30 12:15:20;;;;;;;30.45;27.88;;;26.60;99.90;;;;;;5115585;27;20110;-79
2023/09/30 12:17:48;;;;;;;29.25;27.08;;;26.70;99.90;;;;;;5100025;28;20091;-80
2023/09/30 12:20:17;;;;;;;29.48;27.00;;;26.80;99.90;;;;;;5112081;27;20080;-79
2023/09/30 12:22:51;;;;;;;28.73;26.33;;;26.70;99.90;;;;;;5108817;27;20028;-79
2023/09/30 12:25:25;;;;;;;30.15;27.35;;;26.50;99.90;;;;;;5107095;28;20020;-78
2023/09/30 12:27:55;;;;;;;30.15;27.25;;;26.50;99.90;;;;;;5102418;27;20054;-79
2023/09/30 12:30:23;;;;;;;29.25;27.13;;;26.50;99.90;;;;;;5122186;27;20027;-79
2023/09/30 12:33:13;;;;;;;29.13;26.83;;;26.30;99.90;;;;;;5096956;28;20052;-79
2023/09/30 12:35:55;;;;;;;29.38;27.20;;;26.30;99.90;;;;;;5111888;28;20023;-79
2023/09/30 12:38:23;;;;;;;29.52;26.73;;;26.50;99.90;;;;;;5095604;28;20035;-79